createdAt,value
2019-01-22T00:00:58.484Z,1020.17
2019-01-22T00:01:58.887Z,1020.15
2019-01-22T00:02:58.695Z,1020.18
2019-01-22T00:03:58.810Z,1020.16
2019-01-22T00:04:58.921Z,1020.18
2019-01-22T00:05:59.044Z,1020.17
2019-01-22T00:06:58.653Z,1020.2
2019-01-22T00:07:58.944Z,1020.21
2019-01-22T00:08:58.813Z,1020.21
2019-01-22T00:09:59.244Z,1020.18
2019-01-22T00:10:58.800Z,1020.17
2019-01-22T00:11:58.869Z,1020.15
2019-01-22T00:12:59.042Z,1020.12
2019-01-22T00:13:59.530Z,1020.12
2019-01-22T00:14:59.496Z,1020.09
2019-01-22T00:15:58.716Z,1020.04
2019-01-22T00:16:59.233Z,1020.02
2019-01-22T00:17:59.109Z,1020.02
2019-01-22T00:18:58.702Z,1019.99
2019-01-22T00:19:59.027Z,1020.01
2019-01-22T00:20:58.655Z,1019.98
2019-01-22T00:21:59.349Z,1019.95
2019-01-22T00:23:03.170Z,1019.94
2019-01-22T00:23:58.644Z,1019.95
2019-01-22T00:24:58.856Z,1019.91
2019-01-22T00:25:59.601Z,1019.94
2019-01-22T00:26:58.625Z,1019.94
2019-01-22T00:27:58.651Z,1019.95
2019-01-22T00:28:58.796Z,1019.93
2019-01-22T00:29:58.991Z,1019.92
2019-01-22T00:30:59.464Z,1019.95
2019-01-22T00:31:58.699Z,1019.92
2019-01-22T00:32:59.017Z,1019.91
2019-01-22T00:33:58.781Z,1019.87
2019-01-22T00:34:58.609Z,1019.89
2019-01-22T00:35:58.736Z,1019.84
2019-01-22T00:36:58.778Z,1019.86
2019-01-22T00:37:58.995Z,1019.86
2019-01-22T00:38:58.609Z,1019.85
2019-01-22T00:39:59.378Z,1019.82
2019-01-22T00:40:59.086Z,1019.86
2019-01-22T00:41:59.240Z,1019.87
2019-01-22T00:42:58.937Z,1019.88
2019-01-22T00:43:59.021Z,1019.87
2019-01-22T00:44:58.746Z,1019.85
2019-01-22T00:45:58.898Z,1019.82
2019-01-22T00:46:58.628Z,1019.81
2019-01-22T00:47:59.347Z,1019.81
2019-01-22T00:48:58.767Z,1019.8
2019-01-22T00:49:58.644Z,1019.8
2019-01-22T00:50:58.699Z,1019.78
2019-01-22T00:51:58.614Z,1019.8
2019-01-22T00:52:58.681Z,1019.82
2019-01-22T00:53:59.029Z,1019.77
2019-01-22T00:54:59.472Z,1019.72
2019-01-22T00:55:58.886Z,1019.72
2019-01-22T00:56:58.983Z,1019.75
2019-01-22T00:57:58.809Z,1019.72
2019-01-22T00:58:58.887Z,1019.71
2019-01-22T00:59:58.740Z,1019.73
2019-01-22T01:00:58.593Z,1019.75
2019-01-22T01:01:59.010Z,1019.73
2019-01-22T01:03:00.452Z,1019.71
2019-01-22T01:03:59.024Z,1019.72
2019-01-22T01:04:58.826Z,1019.69
2019-01-22T01:05:59.138Z,1019.66
2019-01-22T01:06:59.044Z,1019.67
2019-01-22T01:07:59.154Z,1019.62
2019-01-22T01:08:58.652Z,1019.62
2019-01-22T01:09:58.554Z,1019.62
2019-01-22T01:10:58.970Z,1019.64
2019-01-22T01:11:58.652Z,1019.64
2019-01-22T01:12:58.608Z,1019.67
2019-01-22T01:13:58.570Z,1019.6
2019-01-22T01:14:58.657Z,1019.67
2019-01-22T01:15:58.647Z,1019.63
2019-01-22T01:16:58.571Z,1019.62
2019-01-22T01:17:58.624Z,1019.59
2019-01-22T01:18:58.836Z,1019.56
2019-01-22T01:19:58.563Z,1019.53
2019-01-22T01:20:58.567Z,1019.5
2019-01-22T01:21:58.676Z,1019.5
2019-01-22T01:22:58.725Z,1019.5
2019-01-22T01:23:58.561Z,1019.46
2019-01-22T01:24:58.631Z,1019.47
2019-01-22T01:25:58.588Z,1019.48
2019-01-22T01:26:58.890Z,1019.5
2019-01-22T01:27:58.539Z,1019.42
2019-01-22T01:28:58.533Z,1019.46
2019-01-22T01:29:58.543Z,1019.43
2019-01-22T01:30:58.739Z,1019.44
2019-01-22T01:31:58.518Z,1019.4
2019-01-22T01:32:58.685Z,1019.38
2019-01-22T01:33:58.518Z,1019.36
2019-01-22T01:34:59.954Z,1019.34
2019-01-22T01:35:58.648Z,1019.29
2019-01-22T01:36:58.690Z,1019.3
2019-01-22T01:37:58.759Z,1019.32
2019-01-22T01:38:58.643Z,1019.25
2019-01-22T01:39:58.620Z,1019.26
2019-01-22T01:40:58.620Z,1019.25
2019-01-22T01:42:00.346Z,1019.21
2019-01-22T01:43:00.216Z,1019.19
2019-01-22T01:43:59.139Z,1019.16
2019-01-22T01:44:58.686Z,1019.14
2019-01-22T01:45:58.939Z,1019.12
2019-01-22T01:46:58.891Z,1019.13
2019-01-22T01:47:59.034Z,1019.1
2019-01-22T01:48:58.517Z,1019.07
2019-01-22T01:49:58.740Z,1019.09
2019-01-22T01:50:59.230Z,1019.07
2019-01-22T01:51:58.603Z,1019.05
2019-01-22T01:52:58.457Z,1019.07
2019-01-22T01:53:58.621Z,1019.07
2019-01-22T01:54:58.770Z,1019.07
2019-01-22T01:55:58.584Z,1019.03
2019-01-22T01:56:58.885Z,1019.04
2019-01-22T01:57:59.204Z,1019.03
2019-01-22T01:58:58.616Z,1019.02
2019-01-22T01:59:59.032Z,1018.98
2019-01-22T02:00:58.503Z,1018.94
2019-01-22T02:01:58.509Z,1018.9
2019-01-22T02:02:58.923Z,1018.9
2019-01-22T02:03:58.506Z,1018.9
2019-01-22T02:04:58.538Z,1018.91
2019-01-22T02:05:58.611Z,1018.85
2019-01-22T02:06:59.758Z,1018.87
2019-01-22T02:07:58.505Z,1018.84
2019-01-22T02:08:58.566Z,1018.85
2019-01-22T02:09:58.770Z,1018.84
2019-01-22T02:10:58.520Z,1018.82
2019-01-22T02:11:58.635Z,1018.8
2019-01-22T02:12:58.879Z,1018.78
2019-01-22T02:13:58.483Z,1018.76
2019-01-22T02:14:58.915Z,1018.75
2019-01-22T02:15:58.552Z,1018.76
2019-01-22T02:16:59.263Z,1018.69
2019-01-22T02:17:59.140Z,1018.66
2019-01-22T02:18:58.500Z,1018.66
2019-01-22T02:19:58.487Z,1018.7
2019-01-22T02:20:58.604Z,1018.68
2019-01-22T02:21:59.332Z,1018.69
2019-01-22T02:22:58.774Z,1018.68
2019-01-22T02:23:58.758Z,1018.69
2019-01-22T02:24:59.229Z,1018.61
2019-01-22T02:26:00.260Z,1018.59
2019-01-22T02:26:58.822Z,1018.59
2019-01-22T02:27:58.695Z,1018.6
2019-01-22T02:28:58.978Z,1018.61
2019-01-22T02:29:58.810Z,1018.58
2019-01-22T02:30:58.468Z,1018.56
2019-01-22T02:31:58.768Z,1018.54
2019-01-22T02:32:58.422Z,1018.52
2019-01-22T02:33:58.439Z,1018.51
2019-01-22T02:34:58.533Z,1018.48
2019-01-22T02:35:58.457Z,1018.42
2019-01-22T02:36:59.178Z,1018.41
2019-01-22T02:37:58.511Z,1018.42
2019-01-22T02:38:58.519Z,1018.41
2019-01-22T02:39:59.275Z,1018.39
2019-01-22T02:40:58.874Z,1018.37
2019-01-22T02:41:58.613Z,1018.41
2019-01-22T02:42:58.650Z,1018.39
2019-01-22T02:43:58.673Z,1018.36
2019-01-22T02:44:58.597Z,1018.36
2019-01-22T02:45:58.788Z,1018.36
2019-01-22T02:46:58.524Z,1018.37
2019-01-22T02:47:58.618Z,1018.35
2019-01-22T02:48:59.546Z,1018.33
2019-01-22T02:49:58.438Z,1018.32
2019-01-22T02:50:58.552Z,1018.31
2019-01-22T02:51:58.482Z,1018.3
2019-01-22T02:52:58.510Z,1018.3
2019-01-22T02:53:58.436Z,1018.31
2019-01-22T02:54:58.400Z,1018.31
2019-01-22T02:55:58.625Z,1018.25
2019-01-22T02:56:58.546Z,1018.24
2019-01-22T02:57:58.777Z,1018.27
2019-01-22T02:58:58.443Z,1018.22
2019-01-22T02:59:59.218Z,1018.21
2019-01-22T03:00:58.450Z,1018.22
2019-01-22T03:01:58.826Z,1018.22
2019-01-22T03:02:58.534Z,1018.24
2019-01-22T03:03:58.367Z,1018.23
2019-01-22T03:04:58.402Z,1018.23
2019-01-22T03:05:58.946Z,1018.22
2019-01-22T03:06:58.433Z,1018.19
2019-01-22T03:07:58.367Z,1018.21
2019-01-22T03:08:58.361Z,1018.17
2019-01-22T03:09:58.442Z,1018.17
2019-01-22T03:10:58.909Z,1018.11
2019-01-22T03:11:58.542Z,1018.11
2019-01-22T03:12:58.388Z,1018.11
2019-01-22T03:13:58.589Z,1018.11
2019-01-22T03:14:59.238Z,1018.05
2019-01-22T03:15:58.395Z,1018.07
2019-01-22T03:16:58.338Z,1018.09
2019-01-22T03:17:59.032Z,1018.05
2019-01-22T03:18:58.644Z,1018.08
2019-01-22T03:19:58.404Z,1018.05
2019-01-22T03:21:00.174Z,1018.04
2019-01-22T03:21:58.419Z,1017.98
2019-01-22T03:22:58.420Z,1017.98
2019-01-22T03:23:58.405Z,1017.93
2019-01-22T03:24:58.723Z,1017.93
2019-01-22T03:25:58.327Z,1017.92
2019-01-22T03:26:58.465Z,1017.88
2019-01-22T03:27:59.214Z,1017.91
2019-01-22T03:28:58.397Z,1017.85
2019-01-22T03:29:58.388Z,1017.87
2019-01-22T03:30:58.913Z,1017.83
2019-01-22T03:31:59.181Z,1017.83
2019-01-22T03:32:58.611Z,1017.79
2019-01-22T03:33:58.329Z,1017.8
2019-01-22T03:34:58.851Z,1017.79
2019-01-22T03:35:58.550Z,1017.74
2019-01-22T03:36:58.382Z,1017.74
2019-01-22T03:37:58.460Z,1017.71
2019-01-22T03:38:58.596Z,1017.71
2019-01-22T03:39:58.663Z,1017.69
2019-01-22T03:40:58.399Z,1017.68
2019-01-22T03:41:58.401Z,1017.67
2019-01-22T03:42:58.322Z,1017.68
2019-01-22T03:43:58.321Z,1017.68
2019-01-22T03:44:58.614Z,1017.62
2019-01-22T03:45:58.429Z,1017.65
2019-01-22T03:46:58.316Z,1017.59
2019-01-22T03:47:58.825Z,1017.56
2019-01-22T03:48:58.395Z,1017.59
2019-01-22T03:49:58.540Z,1017.56
2019-01-22T03:50:58.538Z,1017.57
2019-01-22T03:51:58.515Z,1017.52
2019-01-22T03:52:58.364Z,1017.5
2019-01-22T03:53:58.424Z,1017.5
2019-01-22T03:54:58.334Z,1017.47
2019-01-22T03:55:58.609Z,1017.47
2019-01-22T03:56:58.355Z,1017.45
2019-01-22T03:57:58.369Z,1017.47
2019-01-22T03:59:00.130Z,1017.42
2019-01-22T03:59:58.501Z,1017.4
2019-01-22T04:00:58.376Z,1017.4
2019-01-22T04:02:00.144Z,1017.4
2019-01-22T04:02:58.437Z,1017.35
2019-01-22T04:03:58.528Z,1017.39
2019-01-22T04:04:58.636Z,1017.34
2019-01-22T04:05:58.753Z,1017.36
2019-01-22T04:06:58.336Z,1017.41
2019-01-22T04:07:58.513Z,1017.38
2019-01-22T04:08:58.357Z,1017.37
2019-01-22T04:09:58.315Z,1017.4
2019-01-22T04:10:59.259Z,1017.4
2019-01-22T04:11:58.617Z,1017.37
2019-01-22T04:12:58.437Z,1017.37
2019-01-22T04:13:58.404Z,1017.38
2019-01-22T04:14:58.815Z,1017.38
2019-01-22T04:16:58.276Z,1017.39
2019-01-22T04:17:58.295Z,1017.41
2019-01-22T04:18:58.331Z,1017.42
2019-01-22T04:19:58.293Z,1017.42
2019-01-22T04:20:58.464Z,1017.38
2019-01-22T04:21:58.754Z,1017.39
2019-01-22T04:22:58.257Z,1017.36
2019-01-22T04:24:02.033Z,1017.35
2019-01-22T04:24:58.341Z,1017.32
2019-01-22T04:25:58.479Z,1017.3
2019-01-22T04:26:58.310Z,1017.28
2019-01-22T04:27:58.288Z,1017.29
2019-01-22T04:28:58.254Z,1017.25
2019-01-22T04:29:58.621Z,1017.25
2019-01-22T04:30:58.362Z,1017.2
2019-01-22T04:31:58.413Z,1017.22
2019-01-22T04:32:58.311Z,1017.22
2019-01-22T04:33:58.289Z,1017.23
2019-01-22T04:34:58.211Z,1017.21
2019-01-22T04:35:58.288Z,1017.21
2019-01-22T04:36:58.453Z,1017.22
2019-01-22T04:37:58.374Z,1017.23
2019-01-22T04:38:59.284Z,1017.19
2019-01-22T04:39:58.426Z,1017.17
2019-01-22T04:40:58.233Z,1017.14
2019-01-22T04:41:58.547Z,1017.07
2019-01-22T04:42:58.253Z,1017.07
2019-01-22T04:43:58.273Z,1017.07
2019-01-22T04:44:58.515Z,1017.04
2019-01-22T04:45:58.276Z,1017
2019-01-22T04:46:58.317Z,1017.02
2019-01-22T04:47:58.264Z,1016.99
2019-01-22T04:48:58.177Z,1016.99
2019-01-22T04:49:58.235Z,1016.96
2019-01-22T04:50:58.554Z,1016.95
2019-01-22T04:51:58.229Z,1016.94
2019-01-22T04:52:58.221Z,1016.91
2019-01-22T04:53:58.374Z,1016.93
2019-01-22T04:54:58.235Z,1016.91
2019-01-22T04:55:58.582Z,1016.92
2019-01-22T04:56:58.178Z,1016.92
2019-01-22T04:57:58.829Z,1016.9
2019-01-22T04:58:58.301Z,1016.91
2019-01-22T04:59:58.289Z,1016.94
2019-01-22T05:00:58.213Z,1016.93
2019-01-22T05:01:58.247Z,1016.86
2019-01-22T05:02:58.842Z,1016.86
2019-01-22T05:03:58.294Z,1016.92
2019-01-22T05:04:58.247Z,1016.87
2019-01-22T05:05:58.861Z,1016.91
2019-01-22T05:06:58.482Z,1016.91
2019-01-22T05:07:58.195Z,1016.86
2019-01-22T05:08:58.575Z,1016.87
2019-01-22T05:09:58.249Z,1016.82
2019-01-22T05:10:58.207Z,1016.78
2019-01-22T05:11:58.651Z,1016.77
2019-01-22T05:12:58.500Z,1016.76
2019-01-22T05:13:58.414Z,1016.76
2019-01-22T05:14:58.513Z,1016.75
2019-01-22T05:15:58.618Z,1016.72
2019-01-22T05:16:58.733Z,1016.77
2019-01-22T05:17:58.202Z,1016.74
2019-01-22T05:18:58.227Z,1016.72
2019-01-22T05:19:58.389Z,1016.72
2019-01-22T05:20:58.582Z,1016.71
2019-01-22T05:21:58.864Z,1016.71
2019-01-22T05:22:58.155Z,1016.67
2019-01-22T05:23:58.254Z,1016.64
2019-01-22T05:24:58.329Z,1016.66
2019-01-22T05:25:58.494Z,1016.65
2019-01-22T05:26:58.993Z,1016.61
2019-01-22T05:27:58.613Z,1016.62
2019-01-22T05:28:58.404Z,1016.6
2019-01-22T05:29:58.722Z,1016.62
2019-01-22T05:30:58.201Z,1016.64
2019-01-22T05:31:58.309Z,1016.6
2019-01-22T05:32:58.279Z,1016.57
2019-01-22T05:33:58.315Z,1016.56
2019-01-22T05:34:58.327Z,1016.53
2019-01-22T05:35:59.086Z,1016.53
2019-01-22T05:36:58.241Z,1016.58
2019-01-22T05:37:58.162Z,1016.5
2019-01-22T05:38:58.986Z,1016.51
2019-01-22T05:39:58.163Z,1016.5
2019-01-22T05:40:58.387Z,1016.48
2019-01-22T05:41:58.386Z,1016.46
2019-01-22T05:42:58.204Z,1016.46
2019-01-22T05:43:59.650Z,1016.47
2019-01-22T05:44:58.196Z,1016.48
2019-01-22T05:45:58.449Z,1016.48
2019-01-22T05:46:58.705Z,1016.48
2019-01-22T05:47:58.361Z,1016.46
2019-01-22T05:48:58.222Z,1016.48
2019-01-22T05:49:58.436Z,1016.47
2019-01-22T05:50:58.417Z,1016.43
2019-01-22T05:51:58.118Z,1016.47
2019-01-22T05:52:58.351Z,1016.51
2019-01-22T05:53:58.085Z,1016.46
2019-01-22T05:54:58.472Z,1016.47
2019-01-22T05:55:58.374Z,1016.45
2019-01-22T05:56:59.893Z,1016.47
2019-01-22T05:57:58.240Z,1016.46
2019-01-22T05:58:58.257Z,1016.43
2019-01-22T05:59:58.224Z,1016.42
2019-01-22T06:00:58.158Z,1016.42
2019-01-22T06:01:58.097Z,1016.45
2019-01-22T06:02:58.187Z,1016.39
2019-01-22T06:03:58.192Z,1016.44
2019-01-22T06:04:58.097Z,1016.47
2019-01-22T06:05:58.135Z,1016.44
2019-01-22T06:06:58.242Z,1016.46
2019-01-22T06:07:58.233Z,1016.41
2019-01-22T06:08:58.271Z,1016.41
2019-01-22T06:09:58.408Z,1016.38
2019-01-22T06:10:58.276Z,1016.39
2019-01-22T06:11:58.148Z,1016.39
2019-01-22T06:12:58.294Z,1016.4
2019-01-22T06:13:58.520Z,1016.4
2019-01-22T06:14:58.135Z,1016.36
2019-01-22T06:15:58.206Z,1016.33
2019-01-22T06:16:58.071Z,1016.34
2019-01-22T06:17:58.181Z,1016.32
2019-01-22T06:18:58.102Z,1016.29
2019-01-22T06:19:58.442Z,1016.27
2019-01-22T06:20:58.157Z,1016.24
2019-01-22T06:21:58.362Z,1016.26
2019-01-22T06:22:58.468Z,1016.21
2019-01-22T06:23:58.064Z,1016.25
2019-01-22T06:24:58.269Z,1016.24
2019-01-22T06:25:58.284Z,1016.18
2019-01-22T06:26:58.034Z,1016.16
2019-01-22T06:27:58.276Z,1016.16
2019-01-22T06:28:58.073Z,1016.13
2019-01-22T06:29:58.108Z,1016.1
2019-01-22T06:30:58.144Z,1016.08
2019-01-22T06:31:58.148Z,1016.06
2019-01-22T06:32:58.099Z,1016.04
2019-01-22T06:33:58.058Z,1016.06
2019-01-22T06:34:58.449Z,1015.99
2019-01-22T06:35:58.102Z,1016.02
2019-01-22T06:36:58.134Z,1016
2019-01-22T06:37:58.130Z,1016.01
2019-01-22T06:38:58.168Z,1015.98
2019-01-22T06:39:58.084Z,1015.95
2019-01-22T06:40:58.081Z,1015.93
2019-01-22T06:41:58.336Z,1015.91
2019-01-22T06:42:58.106Z,1015.96
2019-01-22T06:43:58.150Z,1015.95
2019-01-22T06:44:58.189Z,1015.97
2019-01-22T06:45:58.147Z,1015.95
2019-01-22T06:46:58.125Z,1015.92
2019-01-22T06:47:58.450Z,1015.88
2019-01-22T06:48:58.246Z,1015.86
2019-01-22T06:49:58.088Z,1015.83
2019-01-22T06:50:58.108Z,1015.87
2019-01-22T06:51:58.474Z,1015.87
2019-01-22T06:52:58.099Z,1015.87
2019-01-22T06:53:59.848Z,1015.88
2019-01-22T06:54:58.116Z,1015.87
2019-01-22T06:55:59.848Z,1015.88
2019-01-22T06:56:58.196Z,1015.86
2019-01-22T06:57:58.139Z,1015.84
2019-01-22T06:58:58.362Z,1015.83
2019-01-22T06:59:58.116Z,1015.86
2019-01-22T07:00:58.023Z,1015.83
2019-01-22T07:01:58.100Z,1015.87
2019-01-22T07:02:58.195Z,1015.85
2019-01-22T07:03:57.980Z,1015.87
2019-01-22T07:04:58.555Z,1015.86
2019-01-22T07:05:58.089Z,1015.8
2019-01-22T07:06:58.072Z,1015.78
2019-01-22T07:07:58.328Z,1015.77
2019-01-22T07:08:58.070Z,1015.71
2019-01-22T07:10:00.643Z,1015.75
2019-01-22T07:10:58.328Z,1015.69
2019-01-22T07:11:58.097Z,1015.69
2019-01-22T07:12:58.226Z,1015.73
2019-01-22T07:13:59.682Z,1015.72
2019-01-22T07:14:58.134Z,1015.71
2019-01-22T07:15:58.047Z,1015.68
2019-01-22T07:16:58.331Z,1015.65
2019-01-22T07:17:58.215Z,1015.64
2019-01-22T07:18:58.190Z,1015.57
2019-01-22T07:19:58.253Z,1015.53
2019-01-22T07:20:58.021Z,1015.53
2019-01-22T07:21:58.696Z,1015.55
2019-01-22T07:22:58.121Z,1015.53
2019-01-22T07:23:58.280Z,1015.47
2019-01-22T07:25:05.087Z,1015.47
2019-01-22T07:25:58.298Z,1015.49
2019-01-22T07:26:58.162Z,1015.49
2019-01-22T07:27:58.039Z,1015.44
2019-01-22T07:28:58.214Z,1015.4
2019-01-22T07:29:58.217Z,1015.35
2019-01-22T07:30:58.050Z,1015.33
2019-01-22T07:31:58.791Z,1015.33
2019-01-22T07:32:59.151Z,1015.29
2019-01-22T07:33:57.974Z,1015.32
2019-01-22T07:34:57.990Z,1015.3
2019-01-22T07:35:58.179Z,1015.33
2019-01-22T07:36:58.097Z,1015.3
2019-01-22T07:37:58.808Z,1015.32
2019-01-22T07:38:58.183Z,1015.28
2019-01-22T07:40:02.282Z,1015.32
2019-01-22T07:40:57.971Z,1015.36
2019-01-22T07:41:58.093Z,1015.32
2019-01-22T07:42:58.206Z,1015.32
2019-01-22T07:43:58.310Z,1015.34
2019-01-22T07:44:58.632Z,1015.33
2019-01-22T07:45:57.978Z,1015.33
2019-01-22T07:46:58.052Z,1015.33
2019-01-22T07:47:58.340Z,1015.3
2019-01-22T07:48:58.029Z,1015.28
2019-01-22T07:49:58.037Z,1015.33
2019-01-22T07:50:59.771Z,1015.31
2019-01-22T07:51:58.065Z,1015.28
2019-01-22T07:52:58.274Z,1015.3
2019-01-22T07:53:58.178Z,1015.29
2019-01-22T07:54:59.393Z,1015.25
2019-01-22T07:55:58.301Z,1015.21
2019-01-22T07:56:58.009Z,1015.2
2019-01-22T07:57:57.999Z,1015.16
2019-01-22T07:58:59.241Z,1015.16
2019-01-22T07:59:57.965Z,1015.21
2019-01-22T08:00:58.062Z,1015.16
2019-01-22T08:01:58.375Z,1015.13
2019-01-22T08:02:58.454Z,1015.12
2019-01-22T08:03:58.119Z,1015.11
2019-01-22T08:04:58.020Z,1015.11
2019-01-22T08:05:58.006Z,1015.18
2019-01-22T08:06:58.164Z,1015.16
2019-01-22T08:07:58.798Z,1015.17
2019-01-22T08:08:58.132Z,1015.17
2019-01-22T08:09:58.185Z,1015.14
2019-01-22T08:10:58.011Z,1015.18
2019-01-22T08:11:58.083Z,1015.22
2019-01-22T08:12:58.116Z,1015.17
2019-01-22T08:13:57.984Z,1015.16
2019-01-22T08:14:57.957Z,1015.11
2019-01-22T08:15:57.941Z,1015.14
2019-01-22T08:16:58.140Z,1015.13
2019-01-22T08:17:58.095Z,1015.1
2019-01-22T08:18:58.098Z,1015.09
2019-01-22T08:19:58.161Z,1015.1
2019-01-22T08:20:58.172Z,1015.06
2019-01-22T08:21:58.176Z,1015.09
2019-01-22T08:22:57.990Z,1015.01
2019-01-22T08:23:58.015Z,1015.03
2019-01-22T08:25:01.075Z,1015
2019-01-22T08:25:58.010Z,1015.04
2019-01-22T08:26:58.034Z,1014.97
2019-01-22T08:27:57.876Z,1015.01
2019-01-22T08:28:57.955Z,1014.94
2019-01-22T08:29:58.016Z,1014.99
2019-01-22T08:30:58.323Z,1014.94
2019-01-22T08:31:58.250Z,1014.91
2019-01-22T08:32:58.026Z,1014.89
2019-01-22T08:33:58.262Z,1014.85
2019-01-22T08:34:58.045Z,1014.86
2019-01-22T08:35:58.314Z,1014.83
2019-01-22T08:36:58.016Z,1014.8
2019-01-22T08:37:57.998Z,1014.78
2019-01-22T08:38:58.477Z,1014.83
2019-01-22T08:39:59.714Z,1014.72
2019-01-22T08:40:59.478Z,1014.79
2019-01-22T08:41:57.979Z,1014.77
2019-01-22T08:42:58.337Z,1014.76
2019-01-22T08:43:57.974Z,1014.74
2019-01-22T08:44:57.852Z,1014.75
2019-01-22T08:45:59.028Z,1014.73
2019-01-22T08:46:59.075Z,1014.68
2019-01-22T08:47:57.895Z,1014.72
2019-01-22T08:48:58.370Z,1014.69
2019-01-22T08:49:57.914Z,1014.71
2019-01-22T08:50:58.259Z,1014.68
2019-01-22T08:51:58.113Z,1014.7
2019-01-22T08:52:57.823Z,1014.7
2019-01-22T08:53:57.970Z,1014.72
2019-01-22T08:54:58.105Z,1014.68
2019-01-22T08:55:57.792Z,1014.67
2019-01-22T08:56:57.916Z,1014.62
2019-01-22T08:57:59.544Z,1014.61
2019-01-22T08:58:58.240Z,1014.58
2019-01-22T08:59:57.806Z,1014.57
2019-01-22T09:00:57.914Z,1014.56
2019-01-22T09:01:58.030Z,1014.53
2019-01-22T09:02:58.050Z,1014.52
2019-01-22T09:03:58.048Z,1014.47
2019-01-22T09:04:57.929Z,1014.45
2019-01-22T09:05:58.071Z,1014.46
2019-01-22T09:06:59.195Z,1014.41
2019-01-22T09:07:58.288Z,1014.43
2019-01-22T09:08:58.085Z,1014.41
2019-01-22T09:09:58.285Z,1014.41
2019-01-22T09:10:58.100Z,1014.41
2019-01-22T09:11:57.797Z,1014.41
2019-01-22T09:12:57.829Z,1014.4
2019-01-22T09:13:58.123Z,1014.45
2019-01-22T09:14:58.235Z,1014.43
2019-01-22T09:15:57.819Z,1014.38
2019-01-22T09:16:57.821Z,1014.38
2019-01-22T09:17:58.143Z,1014.37
2019-01-22T09:18:59.090Z,1014.4
2019-01-22T09:19:58.059Z,1014.37
2019-01-22T09:20:58.017Z,1014.36
2019-01-22T09:21:58.273Z,1014.33
2019-01-22T09:22:58.388Z,1014.33
2019-01-22T09:23:58.122Z,1014.29
2019-01-22T09:24:57.850Z,1014.28
2019-01-22T09:25:58.059Z,1014.3
2019-01-22T09:26:58.308Z,1014.29
2019-01-22T09:27:57.973Z,1014.27
2019-01-22T09:28:59.618Z,1014.28
2019-01-22T09:29:57.822Z,1014.28
2019-01-22T09:30:59.019Z,1014.29
2019-01-22T09:31:59.611Z,1014.23
2019-01-22T09:32:58.045Z,1014.26
2019-01-22T09:33:59.650Z,1014.22
2019-01-22T09:34:57.748Z,1014.21
2019-01-22T09:35:57.817Z,1014.2
2019-01-22T09:36:57.995Z,1014.16
2019-01-22T09:37:57.777Z,1014.17
2019-01-22T09:38:57.989Z,1014.15
2019-01-22T09:39:58.200Z,1014.14
2019-01-22T09:40:57.809Z,1014.15
2019-01-22T09:41:58.211Z,1014.14
2019-01-22T09:42:58.243Z,1014.1
2019-01-22T09:43:58.023Z,1014.08
2019-01-22T09:44:57.971Z,1014.12
2019-01-22T09:45:59.161Z,1014.14
2019-01-22T09:47:00.945Z,1014.1
2019-01-22T09:47:59.670Z,1014.06
2019-01-22T09:48:58.399Z,1014.02
2019-01-22T09:49:57.882Z,1014
2019-01-22T09:50:57.857Z,1014.02
2019-01-22T09:51:59.581Z,1014.01
2019-01-22T09:52:57.733Z,1014.02
2019-01-22T09:53:57.918Z,1014.01
2019-01-22T09:54:57.847Z,1013.97
2019-01-22T09:56:01.147Z,1013.95
2019-01-22T09:56:57.832Z,1013.97
2019-01-22T09:57:58.012Z,1013.95
2019-01-22T09:58:57.773Z,1013.92
2019-01-22T09:59:57.718Z,1013.89
2019-01-22T10:00:57.759Z,1013.87
2019-01-22T10:01:58.043Z,1013.88
2019-01-22T10:02:57.707Z,1013.86
2019-01-22T10:04:03.833Z,1013.84
2019-01-22T10:04:57.774Z,1013.87
2019-01-22T10:05:57.747Z,1013.85
2019-01-22T10:06:57.727Z,1013.87
2019-01-22T10:07:57.697Z,1013.82
2019-01-22T10:08:57.708Z,1013.87
2019-01-22T10:09:57.765Z,1013.79
2019-01-22T10:11:02.028Z,1013.75
2019-01-22T10:11:58.519Z,1013.74
2019-01-22T10:12:57.736Z,1013.73
2019-01-22T10:13:58.026Z,1013.73
2019-01-22T10:14:57.734Z,1013.69
2019-01-22T10:15:58.059Z,1013.71
2019-01-22T10:16:57.681Z,1013.73
2019-01-22T10:17:57.755Z,1013.68
2019-01-22T10:18:57.719Z,1013.67
2019-01-22T10:19:57.712Z,1013.66
2019-01-22T10:20:57.743Z,1013.68
2019-01-22T10:21:57.974Z,1013.65
2019-01-22T10:22:57.705Z,1013.64
2019-01-22T10:23:57.988Z,1013.62
2019-01-22T10:24:57.829Z,1013.61
2019-01-22T10:25:58.098Z,1013.54
2019-01-22T10:26:58.211Z,1013.52
2019-01-22T10:27:58.027Z,1013.51
2019-01-22T10:28:57.669Z,1013.47
2019-01-22T10:29:58.232Z,1013.44
2019-01-22T10:30:58.596Z,1013.44
2019-01-22T10:31:57.744Z,1013.42
2019-01-22T10:32:57.763Z,1013.43
2019-01-22T10:33:57.941Z,1013.41
2019-01-22T10:34:58.307Z,1013.38
2019-01-22T10:35:57.841Z,1013.39
2019-01-22T10:36:57.657Z,1013.36
2019-01-22T10:37:57.751Z,1013.31
2019-01-22T10:38:57.670Z,1013.28
2019-01-22T10:39:57.637Z,1013.24
2019-01-22T10:40:58.108Z,1013.2
2019-01-22T10:41:57.652Z,1013.13
2019-01-22T10:42:58.509Z,1013.17
2019-01-22T10:43:57.973Z,1013.16
2019-01-22T10:44:57.698Z,1013.09
2019-01-22T10:45:58.034Z,1013.1
2019-01-22T10:46:58.064Z,1013.12
2019-01-22T10:47:58.356Z,1013.05
2019-01-22T10:48:57.982Z,1013.06
2019-01-22T10:49:57.686Z,1013.06
2019-01-22T10:50:57.808Z,1013.05
2019-01-22T10:51:57.709Z,1013.02
2019-01-22T10:52:57.785Z,1013.04
2019-01-22T10:53:57.785Z,1013
2019-01-22T10:54:57.589Z,1012.96
2019-01-22T10:55:58.006Z,1012.95
2019-01-22T10:56:57.623Z,1012.93
2019-01-22T10:57:57.969Z,1012.96
2019-01-22T10:58:58.136Z,1012.89
2019-01-22T10:59:57.653Z,1012.89
2019-01-22T11:00:57.689Z,1012.87
2019-01-22T11:01:57.743Z,1012.84
2019-01-22T11:02:57.795Z,1012.81
2019-01-22T11:03:57.690Z,1012.79
2019-01-22T11:04:57.661Z,1012.75
2019-01-22T11:05:57.876Z,1012.79
2019-01-22T11:06:57.658Z,1012.75
2019-01-22T11:07:57.619Z,1012.76
2019-01-22T11:08:57.690Z,1012.77
2019-01-22T11:09:57.584Z,1012.69
2019-01-22T11:10:57.644Z,1012.7
2019-01-22T11:11:57.583Z,1012.69
2019-01-22T11:12:57.995Z,1012.63
2019-01-22T11:13:58.435Z,1012.58
2019-01-22T11:14:57.829Z,1012.63
2019-01-22T11:15:57.790Z,1012.57
2019-01-22T11:16:58.372Z,1012.58
2019-01-22T11:17:57.848Z,1012.54
2019-01-22T11:18:57.619Z,1012.53
2019-01-22T11:19:57.583Z,1012.5
2019-01-22T11:20:57.615Z,1012.49
2019-01-22T11:21:57.893Z,1012.5
2019-01-22T11:22:57.594Z,1012.45
2019-01-22T11:23:57.674Z,1012.44
2019-01-22T11:25:57.929Z,1012.4
2019-01-22T11:26:57.708Z,1012.36
2019-01-22T11:27:57.616Z,1012.36
2019-01-22T11:28:58.252Z,1012.31
2019-01-22T11:29:58.041Z,1012.31
2019-01-22T11:30:57.741Z,1012.26
2019-01-22T11:31:57.655Z,1012.24
2019-01-22T11:32:57.655Z,1012.27
2019-01-22T11:33:57.623Z,1012.23
2019-01-22T11:34:57.687Z,1012.21
2019-01-22T11:35:57.973Z,1012.22
2019-01-22T11:36:57.558Z,1012.15
2019-01-22T11:37:57.993Z,1012.15
2019-01-22T11:38:57.687Z,1012.17
2019-01-22T11:39:57.795Z,1012.13
2019-01-22T11:40:57.667Z,1012.08
2019-01-22T11:41:59.429Z,1012.05
2019-01-22T11:42:58.034Z,1012.07
2019-01-22T11:43:58.087Z,1012.05
2019-01-22T11:44:57.705Z,1012.03
2019-01-22T11:45:57.854Z,1012.01
2019-01-22T11:46:57.694Z,1012
2019-01-22T11:47:57.667Z,1011.98
2019-01-22T11:48:57.704Z,1011.89
2019-01-22T11:49:57.602Z,1011.88
2019-01-22T11:50:57.567Z,1011.83
2019-01-22T11:51:57.935Z,1011.86
2019-01-22T11:52:57.609Z,1011.78
2019-01-22T11:53:57.592Z,1011.81
2019-01-22T11:54:57.573Z,1011.74
2019-01-22T11:55:57.690Z,1011.71
2019-01-22T11:56:57.618Z,1011.73
2019-01-22T11:57:57.535Z,1011.66
2019-01-22T11:58:57.624Z,1011.7
2019-01-22T11:59:57.600Z,1011.67
2019-01-22T12:00:57.942Z,1011.69
2019-01-22T12:01:57.594Z,1011.68
2019-01-22T12:02:57.629Z,1011.64
2019-01-22T12:03:57.561Z,1011.61
2019-01-22T12:04:57.579Z,1011.55
2019-01-22T12:05:57.540Z,1011.56
2019-01-22T12:06:57.779Z,1011.55
2019-01-22T12:07:57.932Z,1011.51
2019-01-22T12:08:57.542Z,1011.49
2019-01-22T12:09:58.036Z,1011.46
2019-01-22T12:10:57.502Z,1011.46